sensor_id;sensor_type;location;lat;lon;timestamp;temperature;humidity
24664;DHT22;12791;50.992;13.788;2022-07-25T00:01:25;20.00;58.60
24664;DHT22;12791;50.992;13.788;2022-07-25T00:03:51;20.00;58.70
24664;DHT22;12791;50.992;13.788;2022-07-25T00:06:18;19.90;58.70
24664;DHT22;12791;50.992;13.788;2022-07-25T00:08:45;19.90;58.60
24664;DHT22;12791;50.992;13.788;2022-07-25T00:11:11;19.90;58.70
24664;DHT22;12791;50.992;13.788;2022-07-25T00:13:38;19.90;58.70
24664;DHT22;12791;50.992;13.788;2022-07-25T00:16:06;19.90;59.30
24664;DHT22;12791;50.992;13.788;2022-07-25T00:18:33;20.00;58.70
24664;DHT22;12791;50.992;13.788;2022-07-25T00:21:00;20.00;58.70
24664;DHT22;12791;50.992;13.788;2022-07-25T00:23:26;19.90;58.70
24664;DHT22;12791;50.992;13.788;2022-07-25T00:25:53;19.90;58.70
24664;DHT22;12791;50.992;13.788;2022-07-25T00:28:20;19.90;58.90
24664;DHT22;12791;50.992;13.788;2022-07-25T00:30:46;19.90;58.70
24664;DHT22;12791;50.992;13.788;2022-07-25T00:33:15;19.90;58.80
24664;DHT22;12791;50.992;13.788;2022-07-25T00:35:42;19.90;58.90
24664;DHT22;12791;50.992;13.788;2022-07-25T00:38:09;19.90;58.90
24664;DHT22;12791;50.992;13.788;2022-07-25T00:40:35;19.90;59.00
24664;DHT22;12791;50.992;13.788;2022-07-25T00:43:02;19.90;59.00
24664;DHT22;12791;50.992;13.788;2022-07-25T00:45:29;19.90;59.10
24664;DHT22;12791;50.992;13.788;2022-07-25T00:47:56;19.90;59.00
24664;DHT22;12791;50.992;13.788;2022-07-25T00:50:24;19.90;59.10
24664;DHT22;12791;50.992;13.788;2022-07-25T00:52:51;19.90;59.20
24664;DHT22;12791;50.992;13.788;2022-07-25T00:55:18;19.90;59.10
24664;DHT22;12791;50.992;13.788;2022-07-25T00:57:45;19.90;59.40
24664;DHT22;12791;50.992;13.788;2022-07-25T01:00:14;19.90;59.50
24664;DHT22;12791;50.992;13.788;2022-07-25T01:02:41;19.90;59.40
24664;DHT22;12791;50.992;13.788;2022-07-25T01:05:08;19.90;59.50
24664;DHT22;12791;50.992;13.788;2022-07-25T01:07:37;19.90;59.40
24664;DHT22;12791;50.992;13.788;2022-07-25T01:10:05;19.90;59.30
24664;DHT22;12791;50.992;13.788;2022-07-25T01:12:42;19.90;59.30
24664;DHT22;12791;50.992;13.788;2022-07-25T01:15:09;19.90;59.50
24664;DHT22;12791;50.992;13.788;2022-07-25T01:17:36;19.90;59.40
24664;DHT22;12791;50.992;13.788;2022-07-25T01:20:03;19.80;59.60
24664;DHT22;12791;50.992;13.788;2022-07-25T01:22:31;19.80;59.70
24664;DHT22;12791;50.992;13.788;2022-07-25T01:24:58;19.80;59.80
24664;DHT22;12791;50.992;13.788;2022-07-25T01:27:24;19.80;59.90
24664;DHT22;12791;50.992;13.788;2022-07-25T01:29:51;19.80;59.80
24664;DHT22;12791;50.992;13.788;2022-07-25T01:32:17;19.80;59.80
24664;DHT22;12791;50.992;13.788;2022-07-25T01:34:44;19.80;60.10
24664;DHT22;12791;50.992;13.788;2022-07-25T01:37:11;19.70;60.10
24664;DHT22;12791;50.992;13.788;2022-07-25T01:39:38;19.70;60.10
24664;DHT22;12791;50.992;13.788;2022-07-25T01:42:05;19.70;60.10
24664;DHT22;12791;50.992;13.788;2022-07-25T01:44:32;19.70;60.30
24664;DHT22;12791;50.992;13.788;2022-07-25T01:46:59;19.70;60.30
24664;DHT22;12791;50.992;13.788;2022-07-25T01:49:25;19.70;60.30
24664;DHT22;12791;50.992;13.788;2022-07-25T01:51:52;19.80;60.30
24664;DHT22;12791;50.992;13.788;2022-07-25T01:54:19;19.80;60.30
24664;DHT22;12791;50.992;13.788;2022-07-25T01:56:47;19.70;60.20
24664;DHT22;12791;50.992;13.788;2022-07-25T01:59:13;19.70;60.30
24664;DHT22;12791;50.992;13.788;2022-07-25T02:01:41;19.70;60.50
24664;DHT22;12791;50.992;13.788;2022-07-25T02:04:07;19.70;60.60
24664;DHT22;12791;50.992;13.788;2022-07-25T02:06:34;19.60;60.60
24664;DHT22;12791;50.992;13.788;2022-07-25T02:09:01;19.60;60.70
24664;DHT22;12791;50.992;13.788;2022-07-25T02:11:28;19.60;60.80
24664;DHT22;12791;50.992;13.788;2022-07-25T02:13:56;19.60;60.80
24664;DHT22;12791;50.992;13.788;2022-07-25T02:16:23;19.60;60.90
24664;DHT22;12791;50.992;13.788;2022-07-25T02:18:50;19.60;60.90
24664;DHT22;12791;50.992;13.788;2022-07-25T02:21:16;19.60;60.80
24664;DHT22;12791;50.992;13.788;2022-07-25T02:23:43;19.60;60.90
24664;DHT22;12791;50.992;13.788;2022-07-25T02:26:11;19.70;61.00
24664;DHT22;12791;50.992;13.788;2022-07-25T02:28:39;19.70;60.90
24664;DHT22;12791;50.992;13.788;2022-07-25T02:31:07;19.70;60.90
24664;DHT22;12791;50.992;13.788;2022-07-25T02:33:34;19.70;60.80
24664;DHT22;12791;50.992;13.788;2022-07-25T02:36:00;19.70;60.90
24664;DHT22;12791;50.992;13.788;2022-07-25T02:38:27;19.70;61.00
24664;DHT22;12791;50.992;13.788;2022-07-25T02:40:54;19.70;61.00
24664;DHT22;12791;50.992;13.788;2022-07-25T02:43:20;19.70;61.10
24664;DHT22;12791;50.992;13.788;2022-07-25T02:45:47;19.70;61.10
24664;DHT22;12791;50.992;13.788;2022-07-25T02:48:15;19.70;61.00
24664;DHT22;12791;50.992;13.788;2022-07-25T02:50:42;19.70;61.00
24664;DHT22;12791;50.992;13.788;2022-07-25T02:53:08;19.70;61.10
24664;DHT22;12791;50.992;13.788;2022-07-25T02:55:35;19.70;61.20
24664;DHT22;12791;50.992;13.788;2022-07-25T02:58:02;19.70;61.30
24664;DHT22;12791;50.992;13.788;2022-07-25T03:00:29;19.70;61.20
24664;DHT22;12791;50.992;13.788;2022-07-25T03:02:55;19.70;61.20
24664;DHT22;12791;50.992;13.788;2022-07-25T03:05:24;19.70;61.10
24664;DHT22;12791;50.992;13.788;2022-07-25T03:07:50;19.70;61.20
24664;DHT22;12791;50.992;13.788;2022-07-25T03:10:17;19.60;61.10
24664;DHT22;12791;50.992;13.788;2022-07-25T03:12:44;19.60;61.20
24664;DHT22;12791;50.992;13.788;2022-07-25T03:15:12;19.60;61.30
24664;DHT22;12791;50.992;13.788;2022-07-25T03:17:39;19.60;61.40
24664;DHT22;12791;50.992;13.788;2022-07-25T03:20:07;19.60;61.40
24664;DHT22;12791;50.992;13.788;2022-07-25T03:22:36;19.60;61.40
24664;DHT22;12791;50.992;13.788;2022-07-25T03:25:03;19.60;61.40
24664;DHT22;12791;50.992;13.788;2022-07-25T03:27:30;19.60;61.40
24664;DHT22;12791;50.992;13.788;2022-07-25T03:29:56;19.60;61.50
24664;DHT22;12791;50.992;13.788;2022-07-25T03:32:24;19.60;61.70
24664;DHT22;12791;50.992;13.788;2022-07-25T03:34:50;19.60;61.80
24664;DHT22;12791;50.992;13.788;2022-07-25T03:37:17;19.60;61.70
24664;DHT22;12791;50.992;13.788;2022-07-25T03:39:45;19.60;61.60
24664;DHT22;12791;50.992;13.788;2022-07-25T03:42:12;19.60;61.70
24664;DHT22;12791;50.992;13.788;2022-07-25T03:44:38;19.60;61.60
24664;DHT22;12791;50.992;13.788;2022-07-25T03:47:05;19.50;61.50
24664;DHT22;12791;50.992;13.788;2022-07-25T03:49:32;19.50;62.40
24664;DHT22;12791;50.992;13.788;2022-07-25T03:51:58;19.60;61.90
24664;DHT22;12791;50.992;13.788;2022-07-25T03:54:25;19.50;61.80
24664;DHT22;12791;50.992;13.788;2022-07-25T03:56:53;19.50;61.90
24664;DHT22;12791;50.992;13.788;2022-07-25T03:59:20;19.50;62.10
24664;DHT22;12791;50.992;13.788;2022-07-25T04:01:48;19.50;62.20
24664;DHT22;12791;50.992;13.788;2022-07-25T04:04:15;19.60;62.00
24664;DHT22;12791;50.992;13.788;2022-07-25T04:06:43;19.60;62.00
24664;DHT22;12791;50.992;13.788;2022-07-25T04:09:11;19.60;62.20
24664;DHT22;12791;50.992;13.788;2022-07-25T04:11:38;19.60;62.10
24664;DHT22;12791;50.992;13.788;2022-07-25T04:14:06;19.60;62.30
24664;DHT22;12791;50.992;13.788;2022-07-25T04:16:33;19.60;62.00
24664;DHT22;12791;50.992;13.788;2022-07-25T04:19:00;19.50;62.00
24664;DHT22;12791;50.992;13.788;2022-07-25T04:21:27;19.50;62.30
24664;DHT22;12791;50.992;13.788;2022-07-25T04:23:54;19.50;62.40
24664;DHT22;12791;50.992;13.788;2022-07-25T04:26:20;19.50;62.30
24664;DHT22;12791;50.992;13.788;2022-07-25T04:28:47;19.50;62.40
24664;DHT22;12791;50.992;13.788;2022-07-25T04:31:15;19.50;62.60
24664;DHT22;12791;50.992;13.788;2022-07-25T04:33:42;19.50;62.50
24664;DHT22;12791;50.992;13.788;2022-07-25T04:36:09;19.50;62.60
24664;DHT22;12791;50.992;13.788;2022-07-25T04:38:36;19.60;62.60
24664;DHT22;12791;50.992;13.788;2022-07-25T04:41:03;19.60;62.70
24664;DHT22;12791;50.992;13.788;2022-07-25T04:43:30;19.60;62.50
24664;DHT22;12791;50.992;13.788;2022-07-25T04:45:56;19.60;62.50
24664;DHT22;12791;50.992;13.788;2022-07-25T04:48:25;19.60;62.70
24664;DHT22;12791;50.992;13.788;2022-07-25T04:50:51;19.70;62.60
24664;DHT22;12791;50.992;13.788;2022-07-25T04:53:18;19.70;62.50
24664;DHT22;12791;50.992;13.788;2022-07-25T04:55:45;19.80;62.50
24664;DHT22;12791;50.992;13.788;2022-07-25T04:58:12;19.80;62.40
24664;DHT22;12791;50.992;13.788;2022-07-25T05:00:38;19.90;62.50
24664;DHT22;12791;50.992;13.788;2022-07-25T05:03:05;19.90;62.30
24664;DHT22;12791;50.992;13.788;2022-07-25T05:05:33;20.10;62.20
24664;DHT22;12791;50.992;13.788;2022-07-25T05:08:00;20.10;62.10
24664;DHT22;12791;50.992;13.788;2022-07-25T05:10:28;20.20;62.00
24664;DHT22;12791;50.992;13.788;2022-07-25T05:12:55;20.20;61.90
24664;DHT22;12791;50.992;13.788;2022-07-25T05:15:22;20.30;61.90
24664;DHT22;12791;50.992;13.788;2022-07-25T05:17:49;20.40;62.00
24664;DHT22;12791;50.992;13.788;2022-07-25T05:20:15;20.40;61.80
24664;DHT22;12791;50.992;13.788;2022-07-25T05:22:43;20.50;61.90
24664;DHT22;12791;50.992;13.788;2022-07-25T05:25:10;20.60;61.80
24664;DHT22;12791;50.992;13.788;2022-07-25T05:27:37;20.60;61.80
24664;DHT22;12791;50.992;13.788;2022-07-25T05:30:05;20.70;61.90
24664;DHT22;12791;50.992;13.788;2022-07-25T05:32:33;20.70;61.30
24664;DHT22;12791;50.992;13.788;2022-07-25T05:34:59;20.80;61.40
24664;DHT22;12791;50.992;13.788;2022-07-25T05:37:26;20.90;61.50
24664;DHT22;12791;50.992;13.788;2022-07-25T05:39:54;20.90;61.40
24664;DHT22;12791;50.992;13.788;2022-07-25T05:42:20;21.00;61.40
24664;DHT22;12791;50.992;13.788;2022-07-25T05:44:47;21.00;61.50
24664;DHT22;12791;50.992;13.788;2022-07-25T05:47:13;21.20;61.20
24664;DHT22;12791;50.992;13.788;2022-07-25T05:49:41;21.30;60.80
24664;DHT22;12791;50.992;13.788;2022-07-25T05:52:07;21.30;60.60
24664;DHT22;12791;50.992;13.788;2022-07-25T05:54:34;21.40;60.50
24664;DHT22;12791;50.992;13.788;2022-07-25T05:57:03;21.50;60.10
24664;DHT22;12791;50.992;13.788;2022-07-25T05:59:29;21.50;59.80
24664;DHT22;12791;50.992;13.788;2022-07-25T06:01:56;21.60;59.90
24664;DHT22;12791;50.992;13.788;2022-07-25T06:04:23;21.60;59.70
24664;DHT22;12791;50.992;13.788;2022-07-25T06:06:49;21.70;59.80
24664;DHT22;12791;50.992;13.788;2022-07-25T06:09:17;21.70;59.80
24664;DHT22;12791;50.992;13.788;2022-07-25T06:11:43;21.80;59.60
24664;DHT22;12791;50.992;13.788;2022-07-25T06:14:11;21.90;59.60
24664;DHT22;12791;50.992;13.788;2022-07-25T06:16:39;22.00;59.30
24664;DHT22;12791;50.992;13.788;2022-07-25T06:19:05;22.10;59.20
24664;DHT22;12791;50.992;13.788;2022-07-25T06:21:32;22.10;58.70
24664;DHT22;12791;50.992;13.788;2022-07-25T06:23:58;22.30;58.60
24664;DHT22;12791;50.992;13.788;2022-07-25T06:26:25;22.40;58.60
24664;DHT22;12791;50.992;13.788;2022-07-25T06:28:52;22.40;58.60
24664;DHT22;12791;50.992;13.788;2022-07-25T06:31:20;22.50;58.20
24664;DHT22;12791;50.992;13.788;2022-07-25T06:33:46;22.60;57.90
24664;DHT22;12791;50.992;13.788;2022-07-25T06:36:13;22.70;57.50
24664;DHT22;12791;50.992;13.788;2022-07-25T06:38:40;22.90;57.50
24664;DHT22;12791;50.992;13.788;2022-07-25T06:41:06;22.90;57.50
24664;DHT22;12791;50.992;13.788;2022-07-25T06:43:33;23.00;57.40
24664;DHT22;12791;50.992;13.788;2022-07-25T06:46:00;23.10;57.30
24664;DHT22;12791;50.992;13.788;2022-07-25T06:48:28;23.20;57.10
24664;DHT22;12791;50.992;13.788;2022-07-25T06:50:55;23.40;57.30
24664;DHT22;12791;50.992;13.788;2022-07-25T06:53:21;23.40;56.50
24664;DHT22;12791;50.992;13.788;2022-07-25T06:55:48;23.50;56.50
24664;DHT22;12791;50.992;13.788;2022-07-25T06:58:15;23.60;56.40
24664;DHT22;12791;50.992;13.788;2022-07-25T07:00:41;23.70;56.60
24664;DHT22;12791;50.992;13.788;2022-07-25T07:03:08;23.80;56.50
24664;DHT22;12791;50.992;13.788;2022-07-25T07:05:38;23.90;56.80
24664;DHT22;12791;50.992;13.788;2022-07-25T07:08:05;24.00;56.40
24664;DHT22;12791;50.992;13.788;2022-07-25T07:10:32;24.30;56.10
24664;DHT22;12791;50.992;13.788;2022-07-25T07:13:03;24.50;55.50
24664;DHT22;12791;50.992;13.788;2022-07-25T07:15:30;24.70;55.20
24664;DHT22;12791;50.992;13.788;2022-07-25T07:17:57;24.90;54.60
24664;DHT22;12791;50.992;13.788;2022-07-25T07:20:23;25.00;54.50
24664;DHT22;12791;50.992;13.788;2022-07-25T07:22:52;25.20;54.10
24664;DHT22;12791;50.992;13.788;2022-07-25T07:25:19;25.30;53.60
24664;DHT22;12791;50.992;13.788;2022-07-25T07:27:48;25.50;53.30
24664;DHT22;12791;50.992;13.788;2022-07-25T07:30:15;25.60;53.20
24664;DHT22;12791;50.992;13.788;2022-07-25T07:32:42;25.60;53.00
24664;DHT22;12791;50.992;13.788;2022-07-25T07:35:09;25.70;52.70
24664;DHT22;12791;50.992;13.788;2022-07-25T07:37:37;25.80;52.20
24664;DHT22;12791;50.992;13.788;2022-07-25T07:40:06;25.90;51.50
24664;DHT22;12791;50.992;13.788;2022-07-25T07:42:37;26.20;51.20
24664;DHT22;12791;50.992;13.788;2022-07-25T07:45:10;26.40;49.40
24664;DHT22;12791;50.992;13.788;2022-07-25T07:47:37;26.50;50.30
24664;DHT22;12791;50.992;13.788;2022-07-25T07:50:05;26.50;50.30
24664;DHT22;12791;50.992;13.788;2022-07-25T07:52:31;26.60;50.00
24664;DHT22;12791;50.992;13.788;2022-07-25T07:54:58;26.70;50.10
24664;DHT22;12791;50.992;13.788;2022-07-25T07:57:44;26.80;49.60
24664;DHT22;12791;50.992;13.788;2022-07-25T08:00:11;27.00;50.00
24664;DHT22;12791;50.992;13.788;2022-07-25T08:02:42;27.00;49.10
24664;DHT22;12791;50.992;13.788;2022-07-25T08:05:09;27.10;48.70
24664;DHT22;12791;50.992;13.788;2022-07-25T08:07:35;27.10;47.80
24664;DHT22;12791;50.992;13.788;2022-07-25T08:10:03;27.20;48.10
24664;DHT22;12791;50.992;13.788;2022-07-25T08:12:30;27.20;49.40
24664;DHT22;12791;50.992;13.788;2022-07-25T08:14:57;27.20;48.40
24664;DHT22;12791;50.992;13.788;2022-07-25T08:17:24;27.30;48.70
24664;DHT22;12791;50.992;13.788;2022-07-25T08:19:51;27.30;48.50
24664;DHT22;12791;50.992;13.788;2022-07-25T08:22:17;27.50;47.90
24664;DHT22;12791;50.992;13.788;2022-07-25T08:24:44;27.70;48.00
24664;DHT22;12791;50.992;13.788;2022-07-25T08:27:11;27.80;47.90
24664;DHT22;12791;50.992;13.788;2022-07-25T08:29:37;27.80;47.40
24664;DHT22;12791;50.992;13.788;2022-07-25T08:32:05;27.90;46.70
24664;DHT22;12791;50.992;13.788;2022-07-25T08:34:32;28.00;46.80
24664;DHT22;12791;50.992;13.788;2022-07-25T08:36:59;28.00;47.00
24664;DHT22;12791;50.992;13.788;2022-07-25T08:39:26;27.90;46.80
24664;DHT22;12791;50.992;13.788;2022-07-25T08:41:53;27.90;47.00
24664;DHT22;12791;50.992;13.788;2022-07-25T08:44:20;27.80;47.00
24664;DHT22;12791;50.992;13.788;2022-07-25T08:46:47;27.70;47.30
24664;DHT22;12791;50.992;13.788;2022-07-25T08:49:15;27.70;47.00
24664;DHT22;12791;50.992;13.788;2022-07-25T08:51:42;27.80;47.10
24664;DHT22;12791;50.992;13.788;2022-07-25T08:54:09;27.80;47.20
24664;DHT22;12791;50.992;13.788;2022-07-25T08:56:36;27.80;47.00
24664;DHT22;12791;50.992;13.788;2022-07-25T08:59:02;27.80;47.10
24664;DHT22;12791;50.992;13.788;2022-07-25T09:01:33;27.90;47.20
24664;DHT22;12791;50.992;13.788;2022-07-25T09:04:03;27.90;47.10
24664;DHT22;12791;50.992;13.788;2022-07-25T09:06:31;27.90;47.30
24664;DHT22;12791;50.992;13.788;2022-07-25T09:08:58;27.90;47.40
24664;DHT22;12791;50.992;13.788;2022-07-25T09:11:27;28.00;47.20
24664;DHT22;12791;50.992;13.788;2022-07-25T09:13:59;28.20;46.80
24664;DHT22;12791;50.992;13.788;2022-07-25T09:16:29;28.20;45.90
24664;DHT22;12791;50.992;13.788;2022-07-25T09:19:05;28.50;44.90
24664;DHT22;12791;50.992;13.788;2022-07-25T09:21:33;28.70;45.30
24664;DHT22;12791;50.992;13.788;2022-07-25T09:24:07;28.70;44.80
24664;DHT22;12791;50.992;13.788;2022-07-25T09:26:43;28.90;44.00
24664;DHT22;12791;50.992;13.788;2022-07-25T09:29:19;28.90;44.00
24664;DHT22;12791;50.992;13.788;2022-07-25T09:31:46;28.90;44.00
24664;DHT22;12791;50.992;13.788;2022-07-25T09:34:16;28.80;44.10
24664;DHT22;12791;50.992;13.788;2022-07-25T09:36:51;28.80;44.40
24664;DHT22;12791;50.992;13.788;2022-07-25T09:39:18;28.60;43.70
24664;DHT22;12791;50.992;13.788;2022-07-25T09:41:45;28.60;43.00
24664;DHT22;12791;50.992;13.788;2022-07-25T09:44:18;28.50;43.10
24664;DHT22;12791;50.992;13.788;2022-07-25T09:46:47;28.50;42.60
24664;DHT22;12791;50.992;13.788;2022-07-25T09:49:14;28.50;43.00
24664;DHT22;12791;50.992;13.788;2022-07-25T09:51:41;28.50;43.40
24664;DHT22;12791;50.992;13.788;2022-07-25T09:54:09;28.50;43.20
24664;DHT22;12791;50.992;13.788;2022-07-25T09:56:36;28.50;43.00
24664;DHT22;12791;50.992;13.788;2022-07-25T09:59:04;28.50;43.00
24664;DHT22;12791;50.992;13.788;2022-07-25T10:01:34;28.60;43.30
24664;DHT22;12791;50.992;13.788;2022-07-25T10:04:11;28.60;43.00
24664;DHT22;12791;50.992;13.788;2022-07-25T10:06:42;28.70;43.10
24664;DHT22;12791;50.992;13.788;2022-07-25T10:09:15;28.70;43.10
24664;DHT22;12791;50.992;13.788;2022-07-25T10:12:04;28.80;43.00
24664;DHT22;12791;50.992;13.788;2022-07-25T10:14:31;28.80;42.60
24664;DHT22;12791;50.992;13.788;2022-07-25T10:16:58;28.80;42.40
24664;DHT22;12791;50.992;13.788;2022-07-25T10:19:42;28.80;42.30
24664;DHT22;12791;50.992;13.788;2022-07-25T10:22:10;28.90;42.00
24664;DHT22;12791;50.992;13.788;2022-07-25T10:24:42;28.80;42.10
24664;DHT22;12791;50.992;13.788;2022-07-25T10:27:10;29.00;42.10
24664;DHT22;12791;50.992;13.788;2022-07-25T10:29:39;29.00;42.10
24664;DHT22;12791;50.992;13.788;2022-07-25T10:32:06;29.00;42.00
24664;DHT22;12791;50.992;13.788;2022-07-25T10:34:33;29.10;41.80
24664;DHT22;12791;50.992;13.788;2022-07-25T10:37:09;29.20;41.80
24664;DHT22;12791;50.992;13.788;2022-07-25T10:39:38;29.20;41.70
24664;DHT22;12791;50.992;13.788;2022-07-25T10:42:05;29.20;41.30
24664;DHT22;12791;50.992;13.788;2022-07-25T10:44:40;29.20;41.30
24664;DHT22;12791;50.992;13.788;2022-07-25T10:47:08;29.30;41.40
24664;DHT22;12791;50.992;13.788;2022-07-25T10:49:37;29.30;41.40
24664;DHT22;12791;50.992;13.788;2022-07-25T10:52:04;29.50;41.10
24664;DHT22;12791;50.992;13.788;2022-07-25T10:54:32;29.60;40.60
24664;DHT22;12791;50.992;13.788;2022-07-25T10:57:02;29.80;40.60
24664;DHT22;12791;50.992;13.788;2022-07-25T10:59:32;29.80;40.70
24664;DHT22;12791;50.992;13.788;2022-07-25T11:01:59;29.80;40.90
24664;DHT22;12791;50.992;13.788;2022-07-25T11:04:26;29.60;41.20
24664;DHT22;12791;50.992;13.788;2022-07-25T11:06:53;29.60;41.10
24664;DHT22;12791;50.992;13.788;2022-07-25T11:09:22;29.50;41.20
24664;DHT22;12791;50.992;13.788;2022-07-25T11:11:50;29.50;41.50
24664;DHT22;12791;50.992;13.788;2022-07-25T11:14:20;29.40;41.40
24664;DHT22;12791;50.992;13.788;2022-07-25T11:16:48;29.50;40.80
24664;DHT22;12791;50.992;13.788;2022-07-25T11:19:20;29.60;41.10
24664;DHT22;12791;50.992;13.788;2022-07-25T11:21:48;29.50;41.10
24664;DHT22;12791;50.992;13.788;2022-07-25T11:24:15;29.50;41.20
24664;DHT22;12791;50.992;13.788;2022-07-25T11:26:46;29.60;41.20
24664;DHT22;12791;50.992;13.788;2022-07-25T11:29:22;29.60;40.70
24664;DHT22;12791;50.992;13.788;2022-07-25T11:31:53;29.70;40.70
24664;DHT22;12791;50.992;13.788;2022-07-25T11:34:22;29.70;40.10
24664;DHT22;12791;50.992;13.788;2022-07-25T11:36:50;29.70;39.80
24664;DHT22;12791;50.992;13.788;2022-07-25T11:39:17;29.70;39.60
24664;DHT22;12791;50.992;13.788;2022-07-25T11:41:44;29.70;39.70
24664;DHT22;12791;50.992;13.788;2022-07-25T11:44:10;29.70;39.70
24664;DHT22;12791;50.992;13.788;2022-07-25T11:46:43;29.80;39.40
24664;DHT22;12791;50.992;13.788;2022-07-25T11:49:10;29.80;39.60
24664;DHT22;12791;50.992;13.788;2022-07-25T11:51:38;29.80;39.70
24664;DHT22;12791;50.992;13.788;2022-07-25T11:54:08;29.80;39.60
24664;DHT22;12791;50.992;13.788;2022-07-25T11:56:39;29.80;39.00
24664;DHT22;12791;50.992;13.788;2022-07-25T11:59:06;29.90;38.80
24664;DHT22;12791;50.992;13.788;2022-07-25T12:01:33;30.00;39.00
24664;DHT22;12791;50.992;13.788;2022-07-25T12:04:12;30.00;38.50
24664;DHT22;12791;50.992;13.788;2022-07-25T12:06:40;30.00;38.70
24664;DHT22;12791;50.992;13.788;2022-07-25T12:09:12;30.10;38.30
24664;DHT22;12791;50.992;13.788;2022-07-25T12:11:39;30.10;38.50
24664;DHT22;12791;50.992;13.788;2022-07-25T12:14:06;30.00;38.40
24664;DHT22;12791;50.992;13.788;2022-07-25T12:16:33;30.10;38.60
24664;DHT22;12791;50.992;13.788;2022-07-25T12:19:00;30.10;38.20
24664;DHT22;12791;50.992;13.788;2022-07-25T12:21:28;30.10;38.00
24664;DHT22;12791;50.992;13.788;2022-07-25T12:23:55;30.10;38.30
24664;DHT22;12791;50.992;13.788;2022-07-25T12:26:21;30.10;38.20
24664;DHT22;12791;50.992;13.788;2022-07-25T12:28:48;30.20;38.20
24664;DHT22;12791;50.992;13.788;2022-07-25T12:31:15;30.30;38.40
24664;DHT22;12791;50.992;13.788;2022-07-25T12:33:41;30.30;38.30
24664;DHT22;12791;50.992;13.788;2022-07-25T12:36:11;30.40;37.80
24664;DHT22;12791;50.992;13.788;2022-07-25T12:38:39;30.50;38.10
24664;DHT22;12791;50.992;13.788;2022-07-25T12:41:06;30.50;38.20
24664;DHT22;12791;50.992;13.788;2022-07-25T12:43:32;30.50;38.00
24664;DHT22;12791;50.992;13.788;2022-07-25T12:45:59;30.50;37.80
24664;DHT22;12791;50.992;13.788;2022-07-25T12:48:26;30.50;37.60
24664;DHT22;12791;50.992;13.788;2022-07-25T12:50:53;30.50;37.40
24664;DHT22;12791;50.992;13.788;2022-07-25T12:53:19;30.60;37.50
24664;DHT22;12791;50.992;13.788;2022-07-25T12:55:49;30.60;37.40
24664;DHT22;12791;50.992;13.788;2022-07-25T12:58:15;30.60;37.70
24664;DHT22;12791;50.992;13.788;2022-07-25T13:00:42;30.60;37.70
24664;DHT22;12791;50.992;13.788;2022-07-25T13:03:09;30.60;37.50
24664;DHT22;12791;50.992;13.788;2022-07-25T13:05:35;30.60;37.60
24664;DHT22;12791;50.992;13.788;2022-07-25T13:08:03;30.60;37.70
24664;DHT22;12791;50.992;13.788;2022-07-25T13:10:30;30.70;37.90
24664;DHT22;12791;50.992;13.788;2022-07-25T13:12:58;30.90;37.80
24664;DHT22;12791;50.992;13.788;2022-07-25T13:15:25;31.00;37.10
24664;DHT22;12791;50.992;13.788;2022-07-25T13:17:52;31.10;36.60
24664;DHT22;12791;50.992;13.788;2022-07-25T13:20:19;31.10;36.80
24664;DHT22;12791;50.992;13.788;2022-07-25T13:22:46;31.10;36.60
24664;DHT22;12791;50.992;13.788;2022-07-25T13:25:12;31.10;36.70
24664;DHT22;12791;50.992;13.788;2022-07-25T13:27:39;31.20;36.90
24664;DHT22;12791;50.992;13.788;2022-07-25T13:30:08;31.30;37.30
24664;DHT22;12791;50.992;13.788;2022-07-25T13:32:34;31.30;37.40
24664;DHT22;12791;50.992;13.788;2022-07-25T13:35:02;31.40;37.40
24664;DHT22;12791;50.992;13.788;2022-07-25T13:37:29;31.40;36.90
24664;DHT22;12791;50.992;13.788;2022-07-25T13:39:55;31.50;36.40
24664;DHT22;12791;50.992;13.788;2022-07-25T13:42:22;31.50;36.90
24664;DHT22;12791;50.992;13.788;2022-07-25T13:44:49;31.60;36.70
24664;DHT22;12791;50.992;13.788;2022-07-25T13:47:16;31.70;36.80
24664;DHT22;12791;50.992;13.788;2022-07-25T13:49:43;31.70;36.80
24664;DHT22;12791;50.992;13.788;2022-07-25T13:52:10;31.70;36.50
24664;DHT22;12791;50.992;13.788;2022-07-25T13:54:37;31.80;36.40
24664;DHT22;12791;50.992;13.788;2022-07-25T13:57:03;32.00;36.30
24664;DHT22;12791;50.992;13.788;2022-07-25T13:59:30;32.00;36.30
24664;DHT22;12791;50.992;13.788;2022-07-25T14:01:57;32.10;35.80
24664;DHT22;12791;50.992;13.788;2022-07-25T14:04:25;32.20;35.70
24664;DHT22;12791;50.992;13.788;2022-07-25T14:06:51;32.20;35.60
24664;DHT22;12791;50.992;13.788;2022-07-25T14:09:19;32.30;35.50
24664;DHT22;12791;50.992;13.788;2022-07-25T14:11:46;32.30;35.70
24664;DHT22;12791;50.992;13.788;2022-07-25T14:14:13;32.50;35.10
24664;DHT22;12791;50.992;13.788;2022-07-25T14:16:40;32.50;35.20
24664;DHT22;12791;50.992;13.788;2022-07-25T14:19:07;32.60;35.50
24664;DHT22;12791;50.992;13.788;2022-07-25T14:21:35;32.70;35.30
24664;DHT22;12791;50.992;13.788;2022-07-25T14:24:02;32.70;35.20
24664;DHT22;12791;50.992;13.788;2022-07-25T14:26:29;32.70;34.40
24664;DHT22;12791;50.992;13.788;2022-07-25T14:28:56;32.80;33.60
24664;DHT22;12791;50.992;13.788;2022-07-25T14:31:23;32.80;34.30
24664;DHT22;12791;50.992;13.788;2022-07-25T14:33:49;32.80;34.30
24664;DHT22;12791;50.992;13.788;2022-07-25T14:36:16;32.90;34.30
24664;DHT22;12791;50.992;13.788;2022-07-25T14:38:44;32.90;34.30
24664;DHT22;12791;50.992;13.788;2022-07-25T14:41:13;32.90;34.10
24664;DHT22;12791;50.992;13.788;2022-07-25T14:43:40;33.00;33.50
24664;DHT22;12791;50.992;13.788;2022-07-25T14:46:07;33.10;33.20
24664;DHT22;12791;50.992;13.788;2022-07-25T14:48:34;33.10;32.70
24664;DHT22;12791;50.992;13.788;2022-07-25T14:51:02;33.10;32.60
24664;DHT22;12791;50.992;13.788;2022-07-25T14:53:28;33.10;33.10
24664;DHT22;12791;50.992;13.788;2022-07-25T14:55:56;33.10;32.00
24664;DHT22;12791;50.992;13.788;2022-07-25T14:58:23;33.30;32.40
24664;DHT22;12791;50.992;13.788;2022-07-25T15:00:50;33.30;32.20
24664;DHT22;12791;50.992;13.788;2022-07-25T15:03:16;33.40;32.20
24664;DHT22;12791;50.992;13.788;2022-07-25T15:05:43;33.40;32.20
24664;DHT22;12791;50.992;13.788;2022-07-25T15:08:10;33.40;32.20
24664;DHT22;12791;50.992;13.788;2022-07-25T15:10:38;33.40;32.20
24664;DHT22;12791;50.992;13.788;2022-07-25T15:13:06;33.40;32.20
24664;DHT22;12791;50.992;13.788;2022-07-25T15:15:33;33.50;32.30
24664;DHT22;12791;50.992;13.788;2022-07-25T15:18:00;33.50;32.30